Portada
METAR-TAF:

METAR-TAF

Aeropuertos :

Aeropuerto de Castellón-Costa Azahar

Castellón de la Plana, España

latitud: 40-12-35N, longitud: 0-04-11E, altitud: 360 m

Observación

El informe se hizo hace 41 minutos, a las 22:30 UTC
Viento 13 kt del norte-noreste, variando entre norte y este-noreste
Temperatura 9°C
Humedad 100%
Presión 1013 hPa
Visibilidad: 8000 m
Cielo cubierto a una altura de 600 ft
lluvia ligera

METAR: LECH 312230Z AUTO 02013KT 350V070 8000 -RA OVC006 09/09 Q1013

Hora: 01:11 (23:11 UTC)


TAF: falta

Observaciones y pronósticos meteorológicos de más de 4000 aeropuertos (mensajes METAR y TAF).

Los puntos amarillos y rojos representan las estaciones disponibles.

Ponga el ratón en el punto deseado para ver el nombre de la estación.

Haga clic para ver las observaciones y los pronósticos meteorológicos.

Para cambiar el mapa : haga clic en los botones verdes con una cruz de color negro para hacer un zoom, en el botón verde con un guión para alejar o en las flechas verdes para mapas adyacentes.


METAR-TAF: